Time;durP1;ratioP1;P1;durP2;ratioP2;P2;SDS_P1;SDS_P2;PMS_P1;PMS_P2;Temp;Humidity;BMP_temperature;BMP_pressure;BME280_temperature;BME280_humidity;BME280_pressure;Samples;Min_cycle;Max_cycle;Signal;HPM_P1;HPM_P2
2022/03/18 00:01:42;;;;;;;8.70;3.83;;;0.70;97.90;;;;;;4190720;28;20285;-53
2022/03/18 00:03:43;;;;;;;6.80;3.73;;;0.60;97.40;;;;;;4189294;28;20277;-52
2022/03/18 00:05:44;;;;;;;7.43;3.67;;;0.60;97.20;;;;;;4190031;28;20266;-58
2022/03/18 00:07:46;;;;;;;5.40;3.90;;;0.60;97.40;;;;;;4189579;28;20370;-52
2022/03/18 00:09:48;;;;;;;8.30;3.77;;;0.60;97.60;;;;;;4188987;28;20299;-48
2022/03/18 00:11:49;;;;;;;7.53;4.23;;;0.60;97.70;;;;;;4190160;28;20273;-57
2022/03/18 00:13:50;;;;;;;6.77;3.70;;;0.50;97.80;;;;;;4190127;28;20258;-55
2022/03/18 00:15:54;;;;;;;6.70;3.60;;;0.60;97.50;;;;;;4193603;28;20670;-56
2022/03/18 00:17:56;;;;;;;8.80;3.93;;;0.50;97.10;;;;;;4192066;28;20374;-59
2022/03/18 00:19:57;;;;;;;7.07;3.73;;;0.50;96.60;;;;;;4223719;28;20324;-61
2022/03/18 00:22:01;;;;;;;7.73;3.63;;;0.50;97.10;;;;;;4210526;28;21148;-55
2022/03/18 00:24:03;;;;;;;8.40;3.50;;;0.50;96.80;;;;;;4210244;28;20276;-52
2022/03/18 00:26:04;;;;;;;7.23;3.27;;;0.50;96.10;;;;;;4216438;28;20275;-51
2022/03/18 00:28:05;;;;;;;5.87;3.23;;;0.50;95.80;;;;;;4226573;28;20313;-58
2022/03/18 00:30:07;;;;;;;7.37;3.50;;;0.50;95.60;;;;;;4226001;28;20759;-48
2022/03/18 00:32:09;;;;;;;6.60;3.27;;;0.40;95.50;;;;;;4226731;28;20276;-56
2022/03/18 00:34:10;;;;;;;6.93;3.53;;;0.40;95.70;;;;;;4225332;28;20244;-59
2022/03/18 00:36:11;;;;;;;6.27;3.23;;;0.40;95.50;;;;;;4226481;28;20743;-50
2022/03/18 00:38:13;;;;;;;8.70;3.20;;;0.30;95.50;;;;;;4225410;28;20272;-51
2022/03/18 00:40:15;;;;;;;5.40;3.23;;;0.30;95.20;;;;;;4223856;27;20785;-53
2022/03/18 00:42:16;;;;;;;8.90;3.37;;;0.30;95.40;;;;;;4226124;27;20250;-54
2022/03/18 00:44:17;;;;;;;6.10;3.13;;;0.30;95.40;;;;;;4225890;27;21117;-52
2022/03/18 00:46:20;;;;;;;5.17;2.60;;;0.20;95.10;;;;;;4226162;28;20324;-54
2022/03/18 00:53:00;;;;;;;7.60;3.47;;;0.10;95.00;;;;;;4208719;28;20284;-57
2022/03/18 00:55:02;;;;;;;9.10;4.57;;;0.10;95.20;;;;;;4209525;28;20269;-54
2022/03/18 00:57:04;;;;;;;7.87;3.57;;;0.10;95.10;;;;;;4208876;28;20344;-50
2022/03/18 00:59:05;;;;;;;5.17;2.77;;;0.00;94.80;;;;;;4209204;28;20342;-54
2022/03/18 01:01:06;;;;;;;5.27;3.07;;;0.00;94.40;;;;;;4208032;28;20261;-55
2022/03/18 01:03:07;;;;;;;5.27;3.40;;;0.00;94.10;;;;;;4212369;28;20281;-53
2022/03/18 01:05:09;;;;;;;4.50;2.70;;;0.00;93.90;;;;;;4224659;28;20266;-56
2022/03/18 01:07:10;;;;;;;7.93;3.23;;;0.00;93.80;;;;;;4225923;27;20341;-50
2022/03/18 01:09:11;;;;;;;8.20;3.20;;;-0.10;93.50;;;;;;4224885;28;20867;-59
2022/03/18 01:11:12;;;;;;;7.43;3.47;;;0.00;92.50;;;;;;4225842;28;20340;-55
2022/03/18 01:13:13;;;;;;;5.60;2.67;;;-0.10;92.60;;;;;;4223644;28;20726;-53
2022/03/18 01:15:14;;;;;;;6.17;3.33;;;-0.20;92.40;;;;;;4224014;28;20904;-56
2022/03/18 01:17:15;;;;;;;7.30;3.60;;;-0.20;92.20;;;;;;4220697;28;20788;-54
2022/03/18 01:19:18;;;;;;;9.83;3.07;;;-0.20;92.10;;;;;;4225436;27;20264;-54
2022/03/18 01:21:19;;;;;;;5.97;3.40;;;-0.30;92.60;;;;;;4225278;28;20777;-57
2022/03/18 01:23:20;;;;;;;6.20;3.20;;;-0.30;92.40;;;;;;4225222;27;21259;-56
2022/03/18 01:25:21;;;;;;;8.30;3.17;;;-0.40;92.50;;;;;;4225210;28;20313;-54
2022/03/18 01:27:22;;;;;;;8.10;3.23;;;-0.40;92.30;;;;;;4224255;28;20248;-58
2022/03/18 01:29:23;;;;;;;6.80;2.87;;;-0.40;92.50;;;;;;4225676;28;20283;-50
2022/03/18 01:31:26;;;;;;;7.10;3.47;;;-0.50;92.30;;;;;;4222477;28;20305;-58
2022/03/18 01:33:27;;;;;;;17.30;3.63;;;-0.50;92.10;;;;;;4225793;28;20275;-50
2022/03/18 01:35:30;;;;;;;7.70;3.10;;;-0.60;92.10;;;;;;4224432;28;20272;-58
2022/03/18 01:37:31;;;;;;;5.97;3.10;;;-0.60;92.50;;;;;;4225533;28;20280;-57
2022/03/18 01:39:32;;;;;;;5.47;3.57;;;-0.60;92.60;;;;;;4224455;27;20325;-59
2022/03/18 01:41:33;;;;;;;5.77;3.30;;;-0.70;92.50;;;;;;4212608;28;20345;-53
2022/03/18 01:43:44;;;;;;;5.50;3.20;;;-0.70;92.70;;;;;;4209252;28;20905;-60
2022/03/18 01:45:46;;;;;;;6.97;3.77;;;-0.70;93.00;;;;;;4225537;28;20271;-53
2022/03/18 01:47:47;;;;;;;6.23;2.80;;;-0.80;92.80;;;;;;4222313;27;20264;-55
2022/03/18 01:49:49;;;;;;;7.97;3.77;;;-0.80;93.10;;;;;;4225073;28;20357;-50
2022/03/18 01:51:50;;;;;;;7.57;3.27;;;-0.80;93.20;;;;;;4224344;28;20747;-52
2022/03/18 01:54:44;;;;;;;6.73;3.90;;;-0.90;93.20;;;;;;4223051;28;20657;-58
2022/03/18 01:56:12;;;;;;;;;;;-0.90;93.40;;;;;;4224685;28;20748;-53
2022/03/18 01:58:13;;;;;;;;;;;-0.90;93.50;;;;;;4225092;28;19908;-57
2022/03/18 02:00:14;;;;;;;10.63;3.65;;;-1.00;93.80;;;;;;4224439;28;19957;-56
2022/03/18 02:02:16;;;;;;;7.50;3.00;;;-1.00;93.90;;;;;;4224144;28;20090;-51
2022/03/18 02:04:18;;;;;;;4.90;3.07;;;-1.00;94.20;;;;;;4225104;27;20318;-52
2022/03/18 02:06:19;;;;;;;5.33;3.00;;;-1.00;94.20;;;;;;4212741;27;20281;-61
2022/03/18 02:08:21;;;;;;;4.07;2.87;;;-1.10;94.50;;;;;;4207956;28;21170;-58
2022/03/18 02:10:22;;;;;;;10.00;3.13;;;-1.10;94.60;;;;;;4207035;28;20322;-53
2022/03/18 02:12:23;;;;;;;8.57;3.57;;;-1.10;94.50;;;;;;4208352;28;20345;-61
2022/03/18 02:14:35;;;;;;;5.73;3.43;;;-1.10;94.70;;;;;;4206941;28;20318;-49
2022/03/18 02:16:39;;;;;;;7.20;3.37;;;-1.20;94.70;;;;;;4208385;28;20276;-49
2022/03/18 02:18:40;;;;;;;7.20;3.10;;;-1.20;94.80;;;;;;4207424;27;20284;-60
2022/03/18 02:20:41;;;;;;;8.10;3.63;;;-1.30;94.80;;;;;;4208305;28;20330;-51
2022/03/18 02:22:43;;;;;;;13.47;3.53;;;-1.30;95.10;;;;;;4207977;28;20261;-51
2022/03/18 02:24:46;;;;;;;8.00;3.80;;;-1.30;95.00;;;;;;4224559;28;20257;-58
2022/03/18 02:26:49;;;;;;;6.53;3.00;;;-1.40;95.00;;;;;;4224133;28;20668;-51
2022/03/18 02:28:51;;;;;;;6.57;3.60;;;-1.40;94.70;;;;;;4208854;28;20284;-55
2022/03/18 02:30:52;;;;;;;10.93;4.00;;;-1.40;94.60;;;;;;4207063;28;20345;-63
2022/03/18 02:32:54;;;;;;;8.10;3.40;;;-1.40;94.50;;;;;;4207549;28;20827;-57
2022/03/18 02:34:56;;;;;;;6.00;3.50;;;-1.40;94.50;;;;;;4206724;28;20253;-51
2022/03/18 02:36:57;;;;;;;10.07;3.37;;;-1.50;94.40;;;;;;4205997;28;20784;-59
2022/03/18 02:38:58;;;;;;;8.60;3.23;;;-1.50;94.40;;;;;;4207826;28;20634;-54
2022/03/18 02:40:59;;;;;;;5.77;3.20;;;-1.60;94.60;;;;;;4206570;28;20342;-51
2022/03/18 02:43:01;;;;;;;6.30;3.67;;;-1.60;94.80;;;;;;4207376;28;20269;-53
2022/03/18 02:45:02;;;;;;;6.97;3.50;;;-1.60;95.10;;;;;;4206784;28;20272;-49
2022/03/18 02:47:04;;;;;;;8.67;3.93;;;-1.70;95.30;;;;;;4207982;28;20261;-49
2022/03/18 02:49:05;;;;;;;13.50;3.47;;;-1.70;94.90;;;;;;4206250;28;20300;-51
2022/03/18 02:51:07;;;;;;;7.70;4.20;;;-1.80;94.90;;;;;;4207748;28;20602;-53
2022/03/18 02:53:08;;;;;;;9.40;4.00;;;-1.80;94.90;;;;;;4206440;28;20261;-50
2022/03/18 02:55:10;;;;;;;8.07;3.50;;;-1.80;94.90;;;;;;4208560;28;20280;-59
2022/03/18 02:57:12;;;;;;;8.70;3.57;;;-1.80;94.60;;;;;;4205894;28;20776;-56
2022/03/18 02:59:13;;;;;;;7.80;4.37;;;-1.80;94.60;;;;;;4206973;28;20336;-53
2022/03/18 03:01:15;;;;;;;5.00;3.23;;;-1.80;94.70;;;;;;4206099;28;20268;-50
2022/03/18 03:03:16;;;;;;;9.27;3.70;;;-1.80;95.00;;;;;;4207097;28;20264;-53
2022/03/18 03:09:58;;;;;;;15.27;4.53;;;-1.90;95.80;;;;;;4206321;28;20293;-49
2022/03/18 03:11:59;;;;;;;8.23;3.70;;;-2.00;96.90;;;;;;4206863;28;20252;-50
2022/03/18 03:14:01;;;;;;;9.07;3.80;;;-2.10;97.40;;;;;;4206697;28;20805;-53
2022/03/18 03:16:02;;;;;;;9.03;4.37;;;-2.10;98.00;;;;;;4206989;28;20284;-62
2022/03/18 03:18:04;;;;;;;8.43;3.90;;;-2.20;98.50;;;;;;4206814;28;20306;-51
2022/03/18 03:20:08;;;;;;;8.73;4.07;;;-2.30;99.00;;;;;;4206359;28;20260;-50
2022/03/18 03:22:09;;;;;;;9.37;4.00;;;-2.30;98.70;;;;;;4208319;28;20276;-52
2022/03/18 03:24:11;;;;;;;9.97;4.03;;;-2.30;98.50;;;;;;4206250;28;20822;-54
2022/03/18 03:26:13;;;;;;;9.07;3.57;;;-2.30;98.10;;;;;;4207542;28;20334;-53
2022/03/18 03:28:14;;;;;;;7.43;3.10;;;-2.30;97.40;;;;;;4205816;28;20353;-56
2022/03/18 03:30:15;;;;;;;7.87;3.93;;;-2.20;97.50;;;;;;4207215;28;20350;-52
2022/03/18 03:32:16;;;;;;;10.00;3.67;;;-2.20;96.60;;;;;;4207173;28;20330;-50
2022/03/18 03:34:20;;;;;;;11.70;3.83;;;-2.10;96.40;;;;;;4207502;28;20838;-57
2022/03/18 03:36:23;;;;;;;7.57;3.73;;;-2.10;95.90;;;;;;4206211;28;20374;-57
2022/03/18 03:38:25;;;;;;;6.20;3.80;;;-2.00;95.60;;;;;;4207074;28;20316;-52
2022/03/18 03:40:26;;;;;;;6.37;3.67;;;-1.90;95.60;;;;;;4205581;28;20318;-51
2022/03/18 03:42:27;;;;;;;6.67;3.80;;;-2.00;95.50;;;;;;4206825;28;20296;-53
2022/03/18 03:44:28;;;;;;;8.70;3.53;;;-2.00;95.20;;;;;;4206603;28;20257;-51
2022/03/18 03:46:33;;;;;;;10.43;3.80;;;-2.00;95.10;;;;;;4208044;28;20496;-56
2022/03/18 03:48:34;;;;;;;13.57;4.30;;;-2.00;95.30;;;;;;4207727;28;20317;-55
2022/03/18 03:50:35;;;;;;;11.70;4.80;;;-2.10;95.70;;;;;;4209356;28;20293;-55
2022/03/18 03:52:37;;;;;;;15.67;5.40;;;-2.20;96.10;;;;;;4210248;28;20748;-52
2022/03/18 03:54:38;;;;;;;9.73;4.57;;;-2.20;96.50;;;;;;4209481;28;20283;-49
2022/03/18 03:56:39;;;;;;;12.07;4.33;;;-2.30;96.60;;;;;;4210215;28;20277;-51
2022/03/18 03:58:41;;;;;;;12.50;4.80;;;-2.30;96.60;;;;;;4208803;28;20306;-52
2022/03/18 04:00:42;;;;;;;14.80;5.47;;;-2.40;97.00;;;;;;4210416;28;20349;-55
2022/03/18 04:02:43;;;;;;;15.10;5.90;;;-2.50;97.40;;;;;;4207972;28;20276;-55
2022/03/18 04:04:44;;;;;;;9.10;4.33;;;-2.50;98.00;;;;;;4225097;28;20775;-52
2022/03/18 04:06:46;;;;;;;13.40;4.57;;;-2.60;98.80;;;;;;4225902;27;21004;-60
2022/03/18 04:08:47;;;;;;;12.07;4.47;;;-2.70;98.80;;;;;;4226275;28;20732;-49
2022/03/18 04:10:48;;;;;;;10.30;4.53;;;-2.70;99.00;;;;;;4209075;28;20264;-57
2022/03/18 04:12:49;;;;;;;8.33;4.83;;;-2.80;99.40;;;;;;4210014;28;20602;-55
2022/03/18 04:14:51;;;;;;;13.20;5.17;;;-2.80;99.20;;;;;;4209468;28;20289;-50
2022/03/18 04:16:52;;;;;;;12.00;5.18;;;-2.80;99.60;;;;;;4210096;28;20265;-52
2022/03/18 04:18:53;;;;;;;9.77;5.00;;;-2.80;99.90;;;;;;4209421;28;20112;-53
2022/03/18 04:20:55;;;;;;;15.75;6.03;;;-2.90;99.80;;;;;;4210042;28;20044;-56
2022/03/18 04:22:56;;;;;;;15.40;5.65;;;-2.90;99.90;;;;;;4209442;28;20040;-56
2022/03/18 04:24:57;;;;;;;10.75;5.47;;;-3.00;99.90;;;;;;4209708;28;20089;-51
2022/03/18 04:26:58;;;;;;;10.13;4.80;;;-3.00;99.90;;;;;;4209509;28;20032;-52
2022/03/18 04:28:59;;;;;;;9.80;5.03;;;-2.90;99.70;;;;;;4209481;28;20036;-54
2022/03/18 04:31:00;;;;;;;10.93;5.20;;;-3.00;99.90;;;;;;4209887;28;20035;-57
2022/03/18 04:33:02;;;;;;;11.52;5.38;;;-3.00;99.90;;;;;;4208314;28;20785;-52
2022/03/18 04:35:05;;;;;;;11.48;5.45;;;-3.00;99.80;;;;;;4211528;28;20048;-52
2022/03/18 04:37:06;;;;;;;10.77;5.13;;;-3.00;99.90;;;;;;4224367;27;20092;-50
2022/03/18 04:39:07;;;;;;;14.70;5.53;;;-3.00;99.90;;;;;;4226704;27;20748;-55
2022/03/18 04:41:08;;;;;;;15.20;5.65;;;-3.00;99.90;;;;;;4215247;27;20101;-50
2022/03/18 04:43:09;;;;;;;11.25;6.13;;;-3.10;99.90;;;;;;4209949;28;20050;-50
2022/03/18 04:45:12;;;;;;;11.00;5.18;;;-3.00;99.90;;;;;;4217941;28;20069;-56
2022/03/18 04:47:13;;;;;;;12.07;5.40;;;-3.00;99.90;;;;;;4204033;27;20065;-53
2022/03/18 04:49:15;;;;;;;13.23;5.97;;;-3.00;99.90;;;;;;4191898;28;20451;-54
2022/03/18 04:51:16;;;;;;;17.33;6.28;;;-3.00;99.90;;;;;;4197855;28;20036;-55
2022/03/18 04:53:17;;;;;;;17.88;6.53;;;-2.80;99.90;;;;;;4208928;28;20057;-52
2022/03/18 04:55:18;;;;;;;13.35;6.10;;;-2.70;99.90;;;;;;4212160;28;20101;-51
2022/03/18 04:57:19;;;;;;;12.93;5.80;;;-2.60;99.60;;;;;;4209427;28;20089;-57
2022/03/18 04:59:20;;;;;;;13.90;6.30;;;-2.40;98.90;;;;;;4222135;27;20027;-57
2022/03/18 05:01:22;;;;;;;18.20;6.28;;;-2.20;98.60;;;;;;4224404;28;20321;-56
2022/03/18 05:03:24;;;;;;;12.87;6.40;;;-2.00;98.10;;;;;;4210152;27;20044;-56
2022/03/18 05:05:25;;;;;;;15.40;6.70;;;-1.90;97.70;;;;;;4209825;28;20273;-54
2022/03/18 05:07:26;;;;;;;13.30;6.37;;;-1.70;97.30;;;;;;4207755;28;20741;-65
2022/03/18 05:09:27;;;;;;;15.47;6.50;;;-1.60;97.40;;;;;;4215509;28;20773;-61
2022/03/18 05:11:29;;;;;;;11.13;5.33;;;-1.50;97.70;;;;;;4224110;28;20260;-55
2022/03/18 05:13:30;;;;;;;13.13;6.17;;;-1.50;97.90;;;;;;4225753;28;20272;-51
2022/03/18 05:15:32;;;;;;;12.73;5.60;;;-1.40;98.00;;;;;;4224891;28;20272;-55
2022/03/18 05:17:33;;;;;;;12.27;5.83;;;-1.30;97.90;;;;;;4225301;27;20662;-60
2022/03/18 05:19:36;;;;;;;11.53;5.40;;;-1.20;97.70;;;;;;4221142;27;20260;-59
2022/03/18 05:21:37;;;;;;;12.57;5.53;;;-1.00;97.60;;;;;;4223126;28;20268;-54
2022/03/18 05:23:40;;;;;;;11.50;5.83;;;-0.90;97.80;;;;;;4224649;28;20578;-55
2022/03/18 05:25:41;;;;;;;13.00;6.40;;;-0.80;97.40;;;;;;4208348;27;21180;-55
2022/03/18 05:27:44;;;;;;;13.50;6.03;;;-0.80;97.10;;;;;;4208556;28;20326;-61
2022/03/18 05:29:45;;;;;;;11.73;6.17;;;-0.60;96.80;;;;;;4207156;28;20764;-55
2022/03/18 05:31:46;;;;;;;10.83;5.13;;;-0.40;96.80;;;;;;4208592;28;20322;-58
2022/03/18 05:33:47;;;;;;;11.63;5.83;;;-0.40;95.70;;;;;;4208572;28;20353;-55
2022/03/18 05:35:48;;;;;;;11.63;5.47;;;-0.10;95.40;;;;;;4208670;28;20273;-55
2022/03/18 05:37:51;;;;;;;11.93;5.77;;;-0.10;94.40;;;;;;4207555;28;20281;-58
2022/03/18 05:39:52;;;;;;;13.57;6.00;;;0.00;94.30;;;;;;4194113;28;20297;-57
2022/03/18 05:41:54;;;;;;;12.87;5.67;;;0.20;94.30;;;;;;4204768;28;20358;-57
2022/03/18 05:43:55;;;;;;;17.63;6.33;;;0.30;93.90;;;;;;4208355;28;20288;-57
2022/03/18 05:45:56;;;;;;;13.23;5.40;;;0.50;93.80;;;;;;4207512;28;20365;-52
2022/03/18 05:47:57;;;;;;;13.90;6.03;;;0.50;93.30;;;;;;4207790;28;20326;-52
2022/03/18 05:50:03;;;;;;;11.10;6.17;;;0.50;93.20;;;;;;4206812;28;20654;-56
2022/03/18 05:52:05;;;;;;;12.37;6.33;;;0.60;92.90;;;;;;4203687;28;20277;-60
2022/03/18 05:54:06;;;;;;;13.30;5.90;;;0.70;93.00;;;;;;4213337;28;20751;-57
2022/03/18 05:58:28;;;;;;;11.70;5.90;;;1.00;92.30;;;;;;4212837;28;20253;-53
2022/03/18 06:00:30;;;;;;;18.37;6.57;;;1.10;91.60;;;;;;4201451;28;20269;-59
2022/03/18 06:02:33;;;;;;;11.83;6.73;;;1.30;92.20;;;;;;4206911;28;20260;-63
2022/03/18 06:04:34;;;;;;;13.47;6.07;;;1.50;91.90;;;;;;4206221;28;20284;-54
2022/03/18 06:06:36;;;;;;;9.73;5.60;;;1.70;91.10;;;;;;4207129;28;20272;-61
2022/03/18 06:13:16;;;;;;;14.77;5.90;;;2.50;89.20;;;;;;4205655;28;20281;-57
2022/03/18 06:15:18;;;;;;;19.77;7.10;;;2.30;87.50;;;;;;4206933;28;20639;-59
2022/03/18 06:17:19;;;;;;;12.57;5.83;;;2.20;87.10;;;;;;4205962;28;20683;-54
2022/03/18 06:19:22;;;;;;;16.33;7.27;;;1.90;87.10;;;;;;4207034;28;20264;-58
2022/03/18 06:21:23;;;;;;;15.80;6.53;;;2.10;88.30;;;;;;4205623;28;20249;-59
2022/03/18 06:23:25;;;;;;;11.17;6.03;;;2.30;87.90;;;;;;4207274;28;20269;-59
2022/03/18 06:25:26;;;;;;;12.40;5.87;;;2.30;87.00;;;;;;4205460;28;20273;-58
2022/03/18 06:27:27;;;;;;;14.53;5.83;;;2.20;86.70;;;;;;4206919;28;20686;-59
2022/03/18 06:29:29;;;;;;;17.87;6.67;;;2.20;86.40;;;;;;4206110;28;20704;-56
2022/03/18 06:31:31;;;;;;;11.27;5.70;;;2.20;86.30;;;;;;4207232;28;20257;-56
2022/03/18 06:33:43;;;;;;;12.63;6.50;;;2.40;86.70;;;;;;4205845;28;20728;-56
2022/03/18 06:35:44;;;;;;;14.50;5.53;;;2.10;86.40;;;;;;4207128;28;20314;-60
2022/03/18 06:37:45;;;;;;;13.33;6.43;;;2.20;87.00;;;;;;4205785;28;20289;-56
2022/03/18 06:39:47;;;;;;;14.53;6.40;;;2.10;86.10;;;;;;4206766;28;20273;-60
2022/03/18 06:41:48;;;;;;;19.67;6.67;;;2.30;86.70;;;;;;4206666;28;20322;-59
2022/03/18 06:43:50;;;;;;;16.03;7.03;;;2.30;85.80;;;;;;4206019;28;20391;-63
2022/03/18 06:45:51;;;;;;;17.27;4.33;;;2.70;86.10;;;;;;4206508;28;20261;-63
2022/03/18 06:47:52;;;;;;;9.93;4.20;;;3.10;80.80;;;;;;4206198;28;20269;-54
2022/03/18 06:49:54;;;;;;;7.00;3.70;;;3.20;79.20;;;;;;4207179;28;20358;-62
2022/03/18 06:51:55;;;;;;;6.37;3.90;;;3.20;75.10;;;;;;4205088;28;20318;-62
2022/03/18 06:53:56;;;;;;;7.83;3.70;;;3.10;73.80;;;;;;4206914;28;20273;-49
2022/03/18 06:55:57;;;;;;;8.03;4.30;;;3.20;73.70;;;;;;4205636;28;20272;-53
2022/03/18 06:57:58;;;;;;;9.77;4.17;;;3.00;71.70;;;;;;4206509;28;20337;-62
2022/03/18 06:59:59;;;;;;;8.33;4.27;;;3.00;72.00;;;;;;4205890;28;20353;-62
2022/03/18 07:02:01;;;;;;;8.47;4.43;;;3.00;72.10;;;;;;4206897;28;20325;-57
2022/03/18 07:04:02;;;;;;;7.10;3.77;;;3.10;71.30;;;;;;4205877;28;20388;-60
2022/03/18 07:06:04;;;;;;;7.87;3.70;;;3.10;71.50;;;;;;4207153;28;20338;-55
2022/03/18 07:08:05;;;;;;;6.77;3.30;;;3.20;70.90;;;;;;4205201;28;20733;-54
2022/03/18 07:10:07;;;;;;;10.23;3.83;;;3.20;70.70;;;;;;4206285;28;20764;-53
2022/03/18 07:12:09;;;;;;;7.30;3.67;;;3.30;71.30;;;;;;4205922;28;20330;-60
2022/03/18 07:14:10;;;;;;;7.10;3.23;;;3.10;69.00;;;;;;4206048;28;20272;-55
2022/03/18 07:18:31;;;;;;;7.23;4.23;;;3.20;69.10;;;;;;4205896;28;20269;-58
2022/03/18 07:20:36;;;;;;;5.73;3.37;;;3.00;69.30;;;;;;4205768;28;20350;-52
2022/03/18 07:22:37;;;;;;;6.90;3.83;;;2.90;69.30;;;;;;4205372;28;20265;-55
2022/03/18 07:24:38;;;;;;;6.17;3.50;;;2.80;68.90;;;;;;4197247;28;20291;-54
2022/03/18 07:26:39;;;;;;;6.87;3.70;;;2.80;68.20;;;;;;4189183;28;20261;-53
2022/03/18 07:28:40;;;;;;;6.67;3.77;;;2.60;70.20;;;;;;4190015;28;20261;-55
2022/03/18 07:30:43;;;;;;;7.77;3.83;;;2.60;69.90;;;;;;4188726;28;20828;-56
2022/03/18 07:32:44;;;;;;;5.93;3.63;;;2.80;70.20;;;;;;4190596;28;21046;-54
2022/03/18 07:34:45;;;;;;;7.23;3.80;;;2.80;69.30;;;;;;4189114;28;20281;-50
2022/03/18 07:36:47;;;;;;;9.67;4.20;;;2.90;68.90;;;;;;4189752;28;20885;-58
2022/03/18 07:38:48;;;;;;;6.57;3.47;;;3.00;69.20;;;;;;4188233;28;20285;-57
2022/03/18 07:40:49;;;;;;;5.33;3.37;;;3.10;69.20;;;;;;4190111;28;20318;-58
2022/03/18 07:42:55;;;;;;;8.70;3.93;;;3.20;68.50;;;;;;4188622;28;20269;-50
2022/03/18 07:44:56;;;;;;;7.47;3.43;;;3.20;68.00;;;;;;4222361;28;20309;-56
2022/03/18 07:46:57;;;;;;;5.27;3.03;;;3.20;67.80;;;;;;4189263;28;20469;-58
2022/03/18 07:48:58;;;;;;;7.87;3.70;;;3.10;67.40;;;;;;4189943;28;20288;-56
2022/03/18 07:50:59;;;;;;;8.17;3.67;;;3.10;67.60;;;;;;4188755;28;20676;-60
2022/03/18 07:53:08;;;;;;;8.80;4.10;;;3.20;67.70;;;;;;4188904;28;20265;-59
2022/03/18 07:55:09;;;;;;;11.87;3.60;;;3.20;67.30;;;;;;4189361;28;20322;-59
2022/03/18 07:57:10;;;;;;;8.93;3.50;;;3.20;67.30;;;;;;4188912;28;20749;-57
2022/03/18 07:59:11;;;;;;;8.67;4.30;;;3.20;67.00;;;;;;4190167;28;20285;-57
2022/03/18 08:01:12;;;;;;;7.60;3.53;;;3.30;67.10;;;;;;4188924;28;20606;-58
2022/03/18 08:03:14;;;;;;;10.60;4.00;;;3.40;67.20;;;;;;4189749;28;20411;-57
2022/03/18 08:05:16;;;;;;;6.47;3.50;;;3.60;66.80;;;;;;4188564;28;20343;-56
2022/03/18 08:07:17;;;;;;;8.90;3.93;;;3.70;66.80;;;;;;4189214;28;20795;-58
2022/03/18 08:09:18;;;;;;;5.87;3.40;;;3.50;65.30;;;;;;4189198;28;20254;-58
2022/03/18 08:11:19;;;;;;;7.07;3.80;;;3.40;64.40;;;;;;4189222;28;20331;-61
2022/03/18 08:13:22;;;;;;;8.50;4.13;;;3.40;66.30;;;;;;4188139;28;20575;-57
2022/03/18 08:15:24;;;;;;;8.03;4.10;;;3.50;66.00;;;;;;4190321;28;20277;-55
2022/03/18 08:17:26;;;;;;;6.07;3.60;;;3.50;65.10;;;;;;4188330;28;20274;-59
2022/03/18 08:19:27;;;;;;;8.47;3.93;;;3.30;65.40;;;;;;4189351;28;20598;-58
2022/03/18 08:21:32;;;;;;;7.43;4.07;;;3.10;65.70;;;;;;4187803;28;20644;-58
2022/03/18 08:23:35;;;;;;;8.17;4.57;;;3.00;66.20;;;;;;4188795;28;20274;-56
2022/03/18 08:25:36;;;;;;;10.40;4.20;;;3.00;66.00;;;;;;4188690;28;20339;-57
2022/03/18 08:27:38;;;;;;;9.53;4.17;;;2.90;65.90;;;;;;4188941;28;20330;-58
2022/03/18 08:29:39;;;;;;;8.23;4.30;;;2.90;66.30;;;;;;4189491;28;20731;-56
2022/03/18 08:31:40;;;;;;;8.70;3.27;;;2.90;66.60;;;;;;4188482;28;21127;-66
2022/03/18 08:33:41;;;;;;;11.27;5.63;;;3.00;66.50;;;;;;4189992;28;20790;-55
2022/03/18 08:35:43;;;;;;;7.03;4.30;;;3.10;66.50;;;;;;4208386;28;20743;-55
2022/03/18 08:37:56;;;;;;;10.07;4.13;;;3.10;66.40;;;;;;4225873;28;20677;-65
2022/03/18 08:39:58;;;;;;;9.10;4.83;;;3.30;66.90;;;;;;4224942;27;20755;-53
2022/03/18 08:41:59;;;;;;;7.73;4.20;;;3.20;65.90;;;;;;4226308;27;20264;-56
2022/03/18 08:44:00;;;;;;;7.30;3.57;;;3.20;66.40;;;;;;4224972;27;20319;-57
2022/03/18 08:46:01;;;;;;;10.90;3.67;;;3.20;66.60;;;;;;4226337;28;20252;-55
2022/03/18 08:48:04;;;;;;;11.07;4.73;;;3.10;66.00;;;;;;4224319;28;20260;-56
2022/03/18 08:50:06;;;;;;;12.43;5.33;;;3.00;66.60;;;;;;4225034;28;20260;-58
2022/03/18 08:52:07;;;;;;;11.70;5.77;;;3.20;66.50;;;;;;4223271;28;20329;-57
2022/03/18 08:54:08;;;;;;;13.37;6.33;;;3.30;66.90;;;;;;4225223;27;20891;-59
2022/03/18 08:56:09;;;;;;;8.23;4.03;;;3.20;67.50;;;;;;4224145;27;20298;-56
2022/03/18 08:58:10;;;;;;;6.67;4.00;;;3.30;66.70;;;;;;4224532;27;20880;-57
2022/03/18 09:00:17;;;;;;;11.77;4.50;;;3.40;67.10;;;;;;4224153;28;21038;-53
2022/03/18 09:02:18;;;;;;;9.97;4.83;;;3.50;66.10;;;;;;4224601;28;20492;-57
2022/03/18 09:04:20;;;;;;;9.20;4.50;;;3.60;66.20;;;;;;4225090;28;20313;-60
2022/03/18 09:06:21;;;;;;;6.27;4.27;;;3.70;66.50;;;;;;4223955;28;20248;-56
2022/03/18 09:08:22;;;;;;;9.80;4.47;;;3.90;66.30;;;;;;4225726;28;20333;-61
2022/03/18 09:10:24;;;;;;;9.30;4.77;;;3.90;65.50;;;;;;4224201;28;20288;-60
2022/03/18 09:12:25;;;;;;;8.60;4.50;;;3.90;66.00;;;;;;4225181;28;20272;-57
2022/03/18 09:14:26;;;;;;;9.67;4.40;;;3.90;65.70;;;;;;4224121;27;21166;-55
2022/03/18 09:16:27;;;;;;;10.93;3.80;;;4.10;65.80;;;;;;4224529;27;20310;-58
2022/03/18 09:18:28;;;;;;;9.27;4.77;;;4.30;66.00;;;;;;4223873;28;20309;-57
2022/03/18 09:20:30;;;;;;;8.77;3.33;;;4.40;65.60;;;;;;4225226;28;20308;-54
2022/03/18 09:22:31;;;;;;;8.80;3.60;;;4.50;65.50;;;;;;4222487;28;20267;-53
2022/03/18 09:24:33;;;;;;;6.93;3.90;;;4.40;64.30;;;;;;4224568;28;20283;-53
2022/03/18 09:26:34;;;;;;;8.37;3.80;;;4.70;65.40;;;;;;4223037;28;20305;-58
2022/03/18 09:28:36;;;;;;;8.47;4.03;;;4.60;64.20;;;;;;4225276;27;20328;-58
2022/03/18 09:30:38;;;;;;;11.63;4.43;;;4.60;64.30;;;;;;4224388;28;20292;-54
2022/03/18 09:32:42;;;;;;;10.17;4.20;;;4.60;64.20;;;;;;4224934;27;20280;-59
2022/03/18 09:34:43;;;;;;;10.93;3.87;;;4.40;63.50;;;;;;4224239;28;20256;-58
2022/03/18 09:36:44;;;;;;;6.07;3.97;;;4.20;64.20;;;;;;4224169;28;20790;-52
2022/03/18 09:38:46;;;;;;;8.07;4.27;;;4.20;64.60;;;;;;4224402;28;20268;-51
2022/03/18 09:40:48;;;;;;;9.10;4.50;;;4.30;63.30;;;;;;4223424;28;20728;-54
2022/03/18 09:43:03;;;;;;;8.97;4.50;;;4.40;64.20;;;;;;4224644;28;20333;-56
2022/03/18 09:45:04;;;;;;;19.93;10.07;;;4.60;63.90;;;;;;4224279;28;20329;-57
2022/03/18 09:47:07;;;;;;;7.10;4.30;;;4.90;63.60;;;;;;4224740;28;20333;-60
2022/03/18 09:49:11;;;;;;;9.10;4.10;;;5.10;63.70;;;;;;4223480;28;20293;-53
2022/03/18 09:51:13;;;;;;;7.43;4.23;;;5.30;63.20;;;;;;4225151;28;20356;-61
2022/03/18 09:53:14;;;;;;;7.70;4.03;;;5.30;63.20;;;;;;4223642;28;20317;-51
2022/03/18 09:55:15;;;;;;;7.70;4.43;;;5.20;62.10;;;;;;4224358;28;21316;-50
2022/03/18 09:57:16;;;;;;;11.57;3.83;;;5.00;62.50;;;;;;4223552;28;20283;-52
2022/03/18 09:59:19;;;;;;;6.97;4.90;;;4.90;62.80;;;;;;4224481;28;20320;-56
2022/03/18 10:01:20;;;;;;;8.07;4.10;;;4.80;63.20;;;;;;4223735;27;20264;-50
2022/03/18 10:03:21;;;;;;;12.07;5.00;;;4.80;62.20;;;;;;4224613;28;20607;-50
2022/03/18 10:05:23;;;;;;;11.33;4.47;;;4.70;63.20;;;;;;4223758;27;20275;-55
2022/03/18 10:07:25;;;;;;;9.07;4.57;;;4.60;63.40;;;;;;4223978;28;20268;-52
2022/03/18 10:09:30;;;;;;;6.67;4.60;;;4.60;62.90;;;;;;4223489;28;20912;-53
2022/03/18 10:11:34;;;;;;;7.33;4.10;;;4.50;62.40;;;;;;4223230;28;20291;-52
2022/03/18 10:13:49;;;;;;;7.83;4.07;;;4.50;63.20;;;;;;4223335;27;20700;-54
2022/03/18 10:15:52;;;;;;;9.10;5.30;;;4.40;62.60;;;;;;4223943;27;20268;-54
2022/03/18 10:17:56;;;;;;;9.40;5.17;;;4.60;63.70;;;;;;4223715;27;20341;-55
2022/03/18 10:19:57;;;;;;;13.17;4.77;;;4.70;63.70;;;;;;4222831;28;20299;-49
2022/03/18 10:22:03;;;;;;;9.00;4.47;;;4.80;64.30;;;;;;4223478;28;20280;-57
2022/03/18 10:24:09;;;;;;;8.40;4.87;;;4.90;63.60;;;;;;4222896;28;20736;-55
2022/03/18 10:26:15;;;;;;;11.10;4.20;;;4.90;63.80;;;;;;4224308;28;20333;-55
2022/03/18 10:28:36;;;;;;;10.47;4.37;;;5.00;63.20;;;;;;4222673;28;20659;-53
2022/03/18 10:30:38;;;;;;;13.30;6.03;;;5.00;62.60;;;;;;4223324;28;20284;-54
2022/03/18 10:32:46;;;;;;;12.13;5.27;;;5.00;63.00;;;;;;4222934;27;20276;-61
2022/03/18 10:37:09;;;;;;;7.33;3.87;;;4.70;62.80;;;;;;4222605;28;20299;-54
2022/03/18 10:39:22;;;;;;;9.23;4.77;;;4.70;63.30;;;;;;4223670;28;20271;-56
2022/03/18 10:41:24;;;;;;;7.90;4.50;;;4.80;63.70;;;;;;4222949;28;20272;-51
2022/03/18 10:43:26;;;;;;;7.20;4.40;;;5.00;63.40;;;;;;4223754;28;20280;-54
2022/03/18 10:45:28;;;;;;;8.43;4.17;;;5.00;63.40;;;;;;4223873;28;20268;-52
2022/03/18 10:47:41;;;;;;;8.57;4.03;;;5.00;62.60;;;;;;4221948;28;20267;-55
2022/03/18 10:49:43;;;;;;;7.80;4.10;;;5.10;62.90;;;;;;4222596;28;20268;-52
2022/03/18 10:51:44;;;;;;;10.63;4.43;;;5.00;62.50;;;;;;4223223;28;20296;-55
2022/03/18 10:53:55;;;;;;;7.60;4.13;;;5.00;62.50;;;;;;4204697;28;20273;-54
2022/03/18 10:56:02;;;;;;;9.10;4.30;;;4.90;61.70;;;;;;4190104;28;20342;-58
2022/03/18 10:58:10;;;;;;;8.57;4.40;;;4.80;62.50;;;;;;4188551;28;20086;-59
2022/03/18 11:00:12;;;;;;;9.33;4.27;;;4.90;62.90;;;;;;4190062;28;20676;-59